Search for airport 
image banner adimage banner adimage banner ad
image banner ad

8CL1 - Lake Wohlford Resort

Located in Escondido, United States

ICAO - 8CL1, IATA -

Data provided by Airmate  

General information

Coordinates: N33°11'10" W117°0'7"
Elevation is 1643 feet MSL.
Magnetic variation is 13° East
View others Airports in California

Operational data

Special qualification required
Current time UTC:
Current local time:
Weather at : KRNM - Ramona ( 18 km )
METAR: KRNM 211053Z AUTO 00000KT 10SM CLR 12/11 A2994 RMK AO2 SLP126 T01170106
View NOTAMs / SUP AIP / TFR affecting this airport [VIEW]
Communications frequencies: [VIEW]

Runways:

RWY identifierQFULength (ft)Width (ft)SurfaceLDA (ft)
03134530OTHER
21134530OTHER

Airport contact information

Address: Escondido United States

Satellite view of 8CL1